createdAt,value
2023-01-27T00:01:57.738Z,98915.47
2023-01-27T00:04:24.219Z,98916.81
2023-01-27T00:06:50.717Z,98902.91
2023-01-27T00:09:17.260Z,98909.19
2023-01-27T00:12:02.246Z,98905.63
2023-01-27T00:14:28.752Z,98902.91
2023-01-27T00:16:58.769Z,98912.19
2023-01-27T00:19:27.069Z,98906.72
2023-01-27T00:22:12.160Z,98903.44
2023-01-27T00:24:38.834Z,98903.44
2023-01-27T00:27:08.821Z,98906.44
2023-01-27T00:29:36.362Z,98913.00
2023-01-27T00:32:21.271Z,98902.06
2023-01-27T00:34:47.744Z,98904.00
2023-01-27T00:37:14.511Z,98905.63
2023-01-27T00:39:41.158Z,98904.00
2023-01-27T00:42:07.634Z,98910.53
2023-01-27T00:44:34.117Z,98905.63
2023-01-27T00:47:00.648Z,98908.59
2023-01-27T00:49:27.128Z,98906.16
2023-01-27T00:51:54.952Z,98906.69
2023-01-27T00:54:21.485Z,98904.50
2023-01-27T00:56:48.393Z,98901.53
2023-01-27T00:59:14.866Z,98908.06
2023-01-27T01:01:41.631Z,98909.44
2023-01-27T01:04:08.136Z,98912.97
2023-01-27T01:06:34.619Z,98912.97
2023-01-27T01:09:01.089Z,98916.25
2023-01-27T01:11:27.630Z,98915.72
2023-01-27T01:13:56.264Z,98915.16
2023-01-27T01:16:23.726Z,98919.81
2023-01-27T01:18:50.269Z,98917.63
2023-01-27T01:21:16.908Z,98919.00
2023-01-27T01:23:44.281Z,98923.09
2023-01-27T01:26:11.645Z,98930.22
2023-01-27T01:28:38.290Z,98926.94
2023-01-27T01:31:08.785Z,98933.44
2023-01-27T01:33:35.977Z,98935.13
2023-01-27T01:36:06.130Z,98935.41
2023-01-27T01:38:32.456Z,98928.25
2023-01-27T01:40:58.976Z,98930.44
2023-01-27T01:43:27.686Z,98935.38
2023-01-27T01:45:55.753Z,98939.75
2023-01-27T01:48:31.718Z,98942.19
2023-01-27T01:51:21.361Z,98932.63
2023-01-27T01:54:04.563Z,98926.34
2023-01-27T01:56:35.481Z,98936.19
2023-01-27T01:59:04.292Z,98929.06
2023-01-27T02:01:30.858Z,98932.09
2023-01-27T02:03:59.166Z,98927.44
2023-01-27T02:06:25.734Z,98940.28
2023-01-27T02:08:52.831Z,98931.00
2023-01-27T02:11:19.470Z,98936.47
2023-01-27T02:13:45.953Z,98931.81
2023-01-27T02:16:12.483Z,98936.72
2023-01-27T02:18:40.158Z,98928.25
2023-01-27T02:21:06.679Z,98930.16
2023-01-27T02:23:41.337Z,98930.72
2023-01-27T02:26:25.648Z,98935.09
2023-01-27T02:28:54.873Z,98927.97
2023-01-27T02:31:21.457Z,98936.47
2023-01-27T02:33:48.077Z,98936.19
2023-01-27T02:36:15.639Z,98943.84
2023-01-27T02:38:47.475Z,98939.47
2023-01-27T02:41:25.998Z,98936.19
2023-01-27T02:43:52.477Z,98937.28
2023-01-27T02:46:18.993Z,98936.72
2023-01-27T02:48:46.506Z,98944.94
2023-01-27T02:51:12.999Z,98947.66
2023-01-27T02:53:39.514Z,98949.59
2023-01-27T02:56:06.292Z,98954.22
2023-01-27T02:58:32.759Z,98947.63
2023-01-27T03:00:59.243Z,98955.06
2023-01-27T03:03:25.726Z,98952.56
2023-01-27T03:05:52.222Z,98955.31
2023-01-27T03:08:19.048Z,98954.75
2023-01-27T03:10:49.130Z,98956.38
2023-01-27T03:13:15.584Z,98950.41
2023-01-27T03:16:00.804Z,98947.94
2023-01-27T03:18:27.293Z,98952.00
2023-01-27T03:20:57.457Z,98956.97
2023-01-27T03:23:23.791Z,98958.34
2023-01-27T03:25:50.314Z,98951.78
2023-01-27T03:28:16.923Z,98949.59
2023-01-27T03:30:43.503Z,98949.59
2023-01-27T03:33:10.105Z,98952.31
2023-01-27T03:35:48.152Z,98951.22
2023-01-27T03:38:36.946Z,98956.16
2023-01-27T03:41:22.602Z,98957.78
2023-01-27T03:44:07.476Z,98956.97
2023-01-27T03:46:33.953Z,98956.97
2023-01-27T03:49:00.976Z,98958.06
2023-01-27T03:51:27.477Z,98960.78
2023-01-27T03:53:54.004Z,98957.78
2023-01-27T03:56:21.619Z,98966.25
2023-01-27T03:58:48.450Z,98971.47
2023-01-27T04:01:20.038Z,98967.31
2023-01-27T04:04:05.181Z,98967.91
2023-01-27T04:06:51.920Z,98960.22
2023-01-27T04:09:37.668Z,98970.34
2023-01-27T04:12:05.294Z,98968.41
2023-01-27T04:14:33.608Z,98965.69
2023-01-27T04:17:20.247Z,98959.94
2023-01-27T04:19:46.950Z,98968.72
2023-01-27T04:22:13.644Z,98974.44
2023-01-27T04:24:40.126Z,98967.06
2023-01-27T04:27:11.716Z,98969.81
2023-01-27T04:29:40.861Z,98972.25
2023-01-27T04:32:09.410Z,98962.44
2023-01-27T04:34:35.900Z,98968.69
2023-01-27T04:37:03.475Z,98975.53
2023-01-27T04:39:29.946Z,98977.72
2023-01-27T04:41:56.905Z,98980.19
2023-01-27T04:44:23.766Z,98988.94
2023-01-27T04:46:50.360Z,98997.69
2023-01-27T04:49:16.923Z,98996.59
2023-01-27T04:51:45.567Z,99003.97
2023-01-27T04:54:12.670Z,99003.69
2023-01-27T04:56:40.222Z,99007.81
2023-01-27T04:59:08.055Z,99015.19
2023-01-27T05:01:34.619Z,99012.72
2023-01-27T05:04:01.135Z,99017.91
2023-01-27T05:06:27.713Z,99011.91
2023-01-27T05:08:54.276Z,99016.56
2023-01-27T05:11:20.791Z,99030.50
2023-01-27T05:13:47.609Z,99022.56
2023-01-27T05:16:21.568Z,99027.78
2023-01-27T05:18:48.802Z,99033.25
2023-01-27T05:21:17.224Z,99027.50
2023-01-27T05:23:44.519Z,99030.50
2023-01-27T05:26:16.558Z,99020.38
2023-01-27T05:28:44.769Z,99020.66
2023-01-27T05:31:12.227Z,99026.41
2023-01-27T05:33:40.278Z,99024.50
2023-01-27T05:36:07.583Z,99036.22
2023-01-27T05:38:34.059Z,99026.41
2023-01-27T05:41:02.112Z,99026.94
2023-01-27T05:43:29.966Z,99032.16
2023-01-27T05:46:03.462Z,99026.94
2023-01-27T05:48:29.972Z,99028.28
2023-01-27T05:50:57.287Z,99039.22
2023-01-27T05:53:23.852Z,99038.69
2023-01-27T05:55:51.196Z,99042.25
2023-01-27T05:58:17.886Z,99038.41
2023-01-27T06:00:44.512Z,99043.34
2023-01-27T06:03:11.124Z,99045.25
2023-01-27T06:05:37.630Z,99044.44
2023-01-27T06:08:04.362Z,99049.91
2023-01-27T06:10:31.968Z,99048.81
2023-01-27T06:13:00.656Z,99049.63
2023-01-27T06:15:27.133Z,99053.72
2023-01-27T06:17:53.742Z,99064.13
2023-01-27T06:20:20.213Z,99067.69
2023-01-27T06:22:46.740Z,99059.19
2023-01-27T06:25:13.541Z,99071.25
2023-01-27T06:27:40.239Z,99081.09
2023-01-27T06:30:07.462Z,99070.41
2023-01-27T06:32:36.204Z,99081.63
2023-01-27T06:35:03.039Z,99085.19
2023-01-27T06:37:29.893Z,99083.56
2023-01-27T06:39:56.357Z,99091.47
2023-01-27T06:42:22.864Z,99098.59
2023-01-27T06:44:49.373Z,99096.41
2023-01-27T06:47:15.873Z,99095.88
2023-01-27T06:49:42.400Z,99092.84
2023-01-27T06:52:08.873Z,99093.13
2023-01-27T06:54:35.395Z,99094.19
2023-01-27T06:57:01.893Z,99095.31
2023-01-27T06:59:28.351Z,99104.63
2023-01-27T07:01:54.851Z,99105.72
2023-01-27T07:04:21.856Z,99107.34
2023-01-27T07:06:48.350Z,99112.56
2023-01-27T07:09:15.107Z,99116.38
2023-01-27T07:11:41.590Z,99111.44
2023-01-27T07:14:10.433Z,99109.78
2023-01-27T07:16:37.156Z,99120.47
2023-01-27T07:19:03.675Z,99122.66
2023-01-27T07:21:30.159Z,99119.94
2023-01-27T07:23:56.668Z,99122.09
2023-01-27T07:26:25.071Z,99129.50
2023-01-27T07:28:52.172Z,99136.34
2023-01-27T07:31:18.765Z,99130.06
2023-01-27T07:33:45.280Z,99134.97
2023-01-27T07:36:11.791Z,99133.34
2023-01-27T07:38:39.009Z,99133.34
2023-01-27T07:41:06.120Z,99123.75
2023-01-27T07:43:33.200Z,99130.59
2023-01-27T07:45:59.948Z,99136.63
2023-01-27T07:48:26.518Z,99137.16
2023-01-27T07:50:52.997Z,99141.00
2023-01-27T07:53:19.461Z,99146.72
2023-01-27T07:55:46.221Z,99155.47
2023-01-27T07:58:12.727Z,99146.47
2023-01-27T08:00:39.334Z,99152.75
2023-01-27T08:03:08.665Z,99159.59
2023-01-27T08:05:35.243Z,99163.69
2023-01-27T08:08:04.412Z,99164.78
2023-01-27T08:10:31.334Z,99167.25
2023-01-27T08:12:57.827Z,99174.09
2023-01-27T08:15:24.377Z,99181.22
2023-01-27T08:17:57.542Z,99175.47
2023-01-27T08:20:24.841Z,99185.03
2023-01-27T08:22:51.328Z,99174.66
2023-01-27T08:25:17.800Z,99181.47
2023-01-27T08:27:44.300Z,99187.50
2023-01-27T08:30:11.548Z,99182.03
2023-01-27T08:32:38.296Z,99191.06
2023-01-27T08:35:04.929Z,99192.97
2023-01-27T08:37:31.484Z,99192.16
2023-01-27T08:39:57.952Z,99187.25
2023-01-27T08:42:24.461Z,99195.44
2023-01-27T08:44:51.021Z,99195.19
2023-01-27T08:47:17.512Z,99200.38
2023-01-27T08:49:44.001Z,99208.03
2023-01-27T08:52:10.485Z,99206.41
2023-01-27T08:54:36.930Z,99211.59
2023-01-27T08:57:03.439Z,99211.88
2023-01-27T08:59:29.897Z,99215.97
2023-01-27T09:01:56.374Z,99223.94
2023-01-27T09:04:23.119Z,99223.66
2023-01-27T09:06:50.393Z,99230.22
2023-01-27T09:09:16.862Z,99233.25
2023-01-27T09:11:44.451Z,99228.84
2023-01-27T09:14:11.061Z,99236.50
2023-01-27T09:16:37.539Z,99228.84
2023-01-27T09:19:04.207Z,99231.06
2023-01-27T09:21:30.715Z,99238.44
2023-01-27T09:23:57.305Z,99233.50
2023-01-27T09:26:23.807Z,99238.97
2023-01-27T09:28:50.291Z,99239.78
2023-01-27T09:31:16.878Z,99244.75
2023-01-27T09:33:43.415Z,99242.00
2023-01-27T09:36:15.571Z,99242.28
2023-01-27T09:38:46.453Z,99239.53
2023-01-27T09:41:46.580Z,99244.19
2023-01-27T09:44:31.897Z,99250.75
2023-01-27T09:47:30.762Z,99250.75
2023-01-27T09:50:18.423Z,99259.22
2023-01-27T09:53:06.121Z,99254.31
2023-01-27T09:55:57.425Z,99260.59
2023-01-27T09:58:52.914Z,99263.59
2023-01-27T10:01:29.771Z,99260.34
2023-01-27T10:04:25.055Z,99255.69
2023-01-27T10:07:01.304Z,99263.06
2023-01-27T10:09:55.808Z,99254.31
2023-01-27T10:12:41.084Z,99256.78
2023-01-27T10:15:43.677Z,99261.69
2023-01-27T10:18:21.702Z,99258.94
2023-01-27T10:21:08.723Z,99264.69
2023-01-27T10:23:51.605Z,99252.38
2023-01-27T10:26:25.769Z,99249.91
2023-01-27T10:28:57.802Z,99252.66
2023-01-27T10:31:26.876Z,99246.91
2023-01-27T10:33:58.369Z,99241.47
2023-01-27T10:36:30.354Z,99239.00
2023-01-27T10:39:16.098Z,99242.28
2023-01-27T10:42:05.824Z,99238.16
2023-01-27T10:44:53.640Z,99234.06
2023-01-27T10:47:50.292Z,99238.16
2023-01-27T10:50:31.393Z,99228.56
2023-01-27T10:53:24.320Z,99235.13
2023-01-27T10:56:01.554Z,99225.28
2023-01-27T10:58:44.135Z,99215.72
2023-01-27T11:01:21.272Z,99212.97
2023-01-27T11:03:54.819Z,99215.16
2023-01-27T11:06:27.348Z,99214.06
2023-01-27T11:08:59.309Z,99205.56
2023-01-27T11:11:44.179Z,99205.31
2023-01-27T11:14:28.900Z,99206.41
2023-01-27T11:17:03.279Z,99203.38
2023-01-27T11:19:41.262Z,99212.16
2023-01-27T11:22:16.634Z,99202.00
2023-01-27T11:24:46.097Z,99211.03
2023-01-27T11:27:57.087Z,99208.88
2023-01-27T11:30:32.615Z,99214.63
2023-01-27T11:33:03.006Z,99209.97
2023-01-27T11:35:29.376Z,99212.97
2023-01-27T11:38:06.320Z,99211.31
2023-01-27T11:40:41.469Z,99204.47
2023-01-27T11:43:09.601Z,99198.72
2023-01-27T11:45:36.246Z,99207.22
2023-01-27T11:48:04.313Z,99199.56
2023-01-27T11:50:33.304Z,99192.72
2023-01-27T11:53:21.582Z,99199.28
2023-01-27T11:55:51.258Z,99186.16
2023-01-27T11:58:24.321Z,99191.91
2023-01-27T12:00:55.188Z,99188.59
2023-01-27T12:03:42.588Z,99185.31
2023-01-27T12:06:15.776Z,99183.13
2023-01-27T12:08:46.439Z,99188.34
2023-01-27T12:11:23.037Z,99179.84
2023-01-27T12:14:11.842Z,99182.31
2023-01-27T12:16:47.624Z,99190.25
2023-01-27T12:19:29.232Z,99193.53
2023-01-27T12:22:01.074Z,99184.22
2023-01-27T12:24:32.068Z,99189.44
2023-01-27T12:26:58.939Z,99190.81
2023-01-27T12:29:34.163Z,99191.34
2023-01-27T12:32:00.823Z,99190.53
2023-01-27T12:34:34.552Z,99183.13
2023-01-27T12:37:01.057Z,99194.34
2023-01-27T12:39:39.368Z,99189.44
2023-01-27T12:42:06.016Z,99186.16
2023-01-27T12:44:42.838Z,99186.72
2023-01-27T12:47:25.226Z,99188.09
2023-01-27T12:49:51.738Z,99194.38
2023-01-27T12:52:19.955Z,99189.44
2023-01-27T12:54:46.436Z,99192.19
2023-01-27T12:57:17.320Z,99193.00
2023-01-27T12:59:51.304Z,99188.31
2023-01-27T13:02:21.283Z,99190.25
2023-01-27T13:04:54.552Z,99184.53
2023-01-27T13:07:29.634Z,99180.69
2023-01-27T13:10:00.190Z,99178.50
2023-01-27T13:12:29.938Z,99183.16
2023-01-27T13:15:14.589Z,99169.75
2023-01-27T13:17:54.547Z,99169.44
2023-01-27T13:20:41.099Z,99177.94
2023-01-27T13:23:24.742Z,99180.66
2023-01-27T13:25:58.931Z,99176.56
2023-01-27T13:28:46.030Z,99173.00
2023-01-27T13:31:39.070Z,99174.38
2023-01-27T13:34:11.583Z,99175.75
2023-01-27T13:36:39.530Z,99177.94
2023-01-27T13:39:39.051Z,99181.78
2023-01-27T13:42:05.812Z,99179.56
2023-01-27T13:44:36.673Z,99184.50
2023-01-27T13:47:05.664Z,99187.53
2023-01-27T13:49:36.367Z,99194.38
2023-01-27T13:52:04.483Z,99190.53
2023-01-27T13:54:31.015Z,99187.25
2023-01-27T13:57:11.912Z,99197.09
2023-01-27T13:59:52.420Z,99185.59
2023-01-27T14:02:33.424Z,99186.97
2023-01-27T14:05:18.381Z,99185.34
2023-01-27T14:08:05.562Z,99182.06
2023-01-27T14:10:38.029Z,99191.91
2023-01-27T14:13:18.595Z,99185.88
2023-01-27T14:15:51.967Z,99185.06
2023-01-27T14:18:30.740Z,99186.16
2023-01-27T14:21:08.574Z,99192.72
2023-01-27T14:23:52.880Z,99193.00
2023-01-27T14:26:36.600Z,99185.59
2023-01-27T14:29:31.962Z,99196.00
2023-01-27T14:32:27.280Z,99199.28
2023-01-27T14:34:59.636Z,99200.91
2023-01-27T14:37:31.484Z,99192.16
2023-01-27T14:40:03.969Z,99194.88
2023-01-27T14:42:39.326Z,99196.00
2023-01-27T14:45:27.136Z,99193.53
2023-01-27T14:47:58.367Z,99189.97
2023-01-27T14:50:46.294Z,99196.00
2023-01-27T14:53:25.539Z,99203.63
2023-01-27T14:55:57.201Z,99206.38
2023-01-27T14:58:55.236Z,99209.69
2023-01-27T15:01:33.626Z,99206.66
2023-01-27T15:04:21.920Z,99211.84
2023-01-27T15:06:53.199Z,99215.69
2023-01-27T15:09:32.514Z,99215.16
2023-01-27T15:12:41.091Z,99228.00
2023-01-27T15:15:29.237Z,99225.28
2023-01-27T15:18:21.066Z,99228.84
2023-01-27T15:21:02.372Z,99224.72
2023-01-27T15:23:48.036Z,99233.47
2023-01-27T15:26:14.503Z,99241.91
2023-01-27T15:28:41.519Z,99242.47
2023-01-27T15:31:13.817Z,99249.84
2023-01-27T15:33:53.518Z,99250.09
2023-01-27T15:36:32.066Z,99251.50
2023-01-27T15:39:10.621Z,99261.31
2023-01-27T15:41:53.013Z,99260.50
2023-01-27T15:44:25.541Z,99261.28
2023-01-27T15:46:53.118Z,99272.25
2023-01-27T15:49:24.647Z,99264.31
2023-01-27T15:51:52.152Z,99262.97
2023-01-27T15:54:27.820Z,99271.16
2023-01-27T15:56:54.898Z,99271.97
2023-01-27T15:59:30.476Z,99280.69
2023-01-27T16:02:01.253Z,99283.69
2023-01-27T16:04:27.975Z,99282.06
2023-01-27T16:07:02.236Z,99281.22
2023-01-27T16:09:39.703Z,99281.75
2023-01-27T16:12:24.432Z,99292.16
2023-01-27T16:15:16.793Z,99287.22
2023-01-27T16:18:01.787Z,99298.16
2023-01-27T16:20:42.454Z,99287.78
2023-01-27T16:23:13.850Z,99302.00
2023-01-27T16:25:45.413Z,99290.50
2023-01-27T16:28:32.077Z,99295.69
2023-01-27T16:31:03.584Z,99298.13
2023-01-27T16:33:33.082Z,99303.88
2023-01-27T16:36:16.112Z,99303.34
2023-01-27T16:38:42.580Z,99300.88
2023-01-27T16:41:27.390Z,99297.56
2023-01-27T16:44:02.739Z,99298.63
2023-01-27T16:46:31.981Z,99305.72
2023-01-27T16:48:58.498Z,99303.28
2023-01-27T16:51:26.538Z,99302.47
2023-01-27T16:53:53.986Z,99308.47
2023-01-27T16:56:27.223Z,99309.28
2023-01-27T16:59:01.163Z,99313.63
2023-01-27T17:01:36.924Z,99316.06
2023-01-27T17:04:18.844Z,99318.03
2023-01-27T17:06:46.247Z,99322.91
2023-01-27T17:09:20.958Z,99308.47
2023-01-27T17:11:47.518Z,99306.25
2023-01-27T17:14:28.603Z,99306.56
2023-01-27T17:17:00.114Z,99312.84
2023-01-27T17:19:34.121Z,99304.63
2023-01-27T17:22:06.584Z,99295.59
2023-01-27T17:25:02.825Z,99308.44
2023-01-27T17:27:31.023Z,99301.66
2023-01-27T17:30:14.807Z,99295.88
2023-01-27T17:32:42.217Z,99298.59
2023-01-27T17:35:19.907Z,99297.25
2023-01-27T17:37:47.122Z,99300.28
2023-01-27T17:40:21.322Z,99294.53
2023-01-27T17:42:48.303Z,99294.53
2023-01-27T17:45:26.383Z,99287.69
2023-01-27T17:47:52.867Z,99282.75
2023-01-27T17:50:21.182Z,99275.63
2023-01-27T17:52:52.349Z,99279.19
2023-01-27T17:55:21.960Z,99287.44
2023-01-27T17:57:50.602Z,99290.44
2023-01-27T18:00:21.740Z,99283.34
2023-01-27T18:02:57.997Z,99281.69
2023-01-27T18:05:25.785Z,99289.34
2023-01-27T18:07:52.275Z,99286.06
2023-01-27T18:10:24.015Z,99286.34
2023-01-27T18:12:51.179Z,99289.91
2023-01-27T18:15:43.091Z,99298.59
2023-01-27T18:18:26.499Z,99295.31
2023-01-27T18:20:53.776Z,99287.91
2023-01-27T18:23:26.349Z,99289.53
2023-01-27T18:26:18.300Z,99278.91
2023-01-27T18:28:45.725Z,99280.78
2023-01-27T18:31:14.798Z,99271.22
2023-01-27T18:33:43.068Z,99272.88
2023-01-27T18:36:21.811Z,99271.75
2023-01-27T18:38:49.926Z,99274.78
2023-01-27T18:41:26.504Z,99272.88
2023-01-27T18:43:53.555Z,99282.69
2023-01-27T18:46:20.096Z,99276.41
2023-01-27T18:48:46.681Z,99265.19
2023-01-27T18:51:14.002Z,99277.78
2023-01-27T18:53:40.475Z,99276.13
2023-01-27T18:56:07.934Z,99287.66
2023-01-27T18:58:38.299Z,99280.78
2023-01-27T19:01:07.080Z,99275.03
2023-01-27T19:03:38.809Z,99298.78
2023-01-27T19:06:16.637Z,99287.88
2023-01-27T19:08:43.191Z,99291.97
2023-01-27T19:11:15.934Z,99296.91
2023-01-27T19:13:45.684Z,99297.41
2023-01-27T19:16:13.946Z,99293.88
2023-01-27T19:18:40.810Z,99297.44
2023-01-27T19:21:11.780Z,99298.78
2023-01-27T19:23:38.324Z,99293.00
2023-01-27T19:26:05.091Z,99282.63
2023-01-27T19:28:38.098Z,99288.63
2023-01-27T19:31:07.712Z,99301.81
2023-01-27T19:33:34.780Z,99299.25
2023-01-27T19:36:17.197Z,99299.56
2023-01-27T19:38:43.686Z,99301.97
2023-01-27T19:41:10.934Z,99294.34
2023-01-27T19:43:37.509Z,99298.41
2023-01-27T19:46:11.426Z,99300.91
2023-01-27T19:48:37.888Z,99303.41
2023-01-27T19:51:04.377Z,99301.72
2023-01-27T19:53:30.843Z,99299.50
2023-01-27T19:55:58.912Z,99301.09
2023-01-27T19:58:27.766Z,99311.47
2023-01-27T20:00:54.828Z,99305.75
2023-01-27T20:03:21.733Z,99310.66
2023-01-27T20:05:48.536Z,99304.34
2023-01-27T20:08:16.620Z,99315.78
2023-01-27T20:10:43.265Z,99312.22
2023-01-27T20:13:15.243Z,99305.91
2023-01-27T20:15:41.749Z,99308.38
2023-01-27T20:18:11.294Z,99308.38
2023-01-27T20:20:37.813Z,99300.97
2023-01-27T20:23:04.285Z,99308.88
2023-01-27T20:25:30.761Z,99313.78
2023-01-27T20:27:58.453Z,99309.97
2023-01-27T20:30:34.884Z,99317.03
2023-01-27T20:33:04.190Z,99321.97
2023-01-27T20:35:30.696Z,99320.28
2023-01-27T20:37:57.880Z,99317.34
2023-01-27T20:40:26.412Z,99323.31
2023-01-27T20:42:53.305Z,99318.13
2023-01-27T20:45:19.782Z,99321.41
2023-01-27T20:47:50.398Z,99313.16
2023-01-27T20:50:17.012Z,99317.38
2023-01-27T20:52:43.548Z,99317.13
2023-01-27T20:55:10.253Z,99319.50
2023-01-27T20:57:36.734Z,99323.00
2023-01-27T21:00:03.395Z,99315.06
2023-01-27T21:02:30.017Z,99317.03
2023-01-27T21:04:56.552Z,99320.84
2023-01-27T21:07:23.535Z,99331.56
2023-01-27T21:09:50.769Z,99327.19
2023-01-27T21:12:17.265Z,99323.88
2023-01-27T21:14:43.748Z,99329.41
2023-01-27T21:17:11.680Z,99318.94
2023-01-27T21:19:38.196Z,99329.03
2023-01-27T21:22:04.669Z,99318.88
2023-01-27T21:24:31.383Z,99321.03
2023-01-27T21:26:57.907Z,99317.22
2023-01-27T21:29:24.386Z,99309.84
2023-01-27T21:31:50.887Z,99317.28
2023-01-27T21:34:17.437Z,99320.00
2023-01-27T21:36:43.907Z,99315.88
2023-01-27T21:39:10.373Z,99322.13
2023-01-27T21:41:55.006Z,99322.13
2023-01-27T21:44:41.612Z,99318.31
2023-01-27T21:47:09.217Z,99325.34
2023-01-27T21:49:55.305Z,99315.53
2023-01-27T21:52:22.693Z,99321.59
2023-01-27T21:54:49.176Z,99316.72
2023-01-27T21:57:19.035Z,99315.31
2023-01-27T21:59:45.802Z,99321.34
2023-01-27T22:02:12.939Z,99315.06
2023-01-27T22:04:42.989Z,99322.72
2023-01-27T22:07:12.423Z,99324.47
2023-01-27T22:09:39.031Z,99320.91
2023-01-27T22:12:06.338Z,99314.44
2023-01-27T22:14:32.882Z,99323.72
2023-01-27T22:16:59.387Z,99325.63
2023-01-27T22:19:25.880Z,99314.69
2023-01-27T22:21:52.354Z,99320.16
2023-01-27T22:24:18.955Z,99317.66
2023-01-27T22:26:45.460Z,99326.44
2023-01-27T22:29:11.907Z,99317.91
2023-01-27T22:31:40.173Z,99319.78
2023-01-27T22:34:06.844Z,99315.44
2023-01-27T22:36:33.316Z,99310.56
2023-01-27T22:38:59.793Z,99308.91
2023-01-27T22:41:26.310Z,99303.97
2023-01-27T22:43:52.782Z,99303.16
2023-01-27T22:46:19.276Z,99304.53
2023-01-27T22:48:47.210Z,99293.94
2023-01-27T22:51:13.684Z,99304.03
2023-01-27T22:53:40.148Z,99282.13
2023-01-27T22:56:07.111Z,99287.41
2023-01-27T22:58:34.380Z,99282.78
2023-01-27T23:01:00.901Z,99281.63
2023-01-27T23:03:27.377Z,99274.78
2023-01-27T23:05:54.104Z,99275.63
2023-01-27T23:08:20.668Z,99275.06
2023-01-27T23:10:47.784Z,99279.47
2023-01-27T23:13:14.464Z,99282.72
2023-01-27T23:15:40.929Z,99279.47
2023-01-27T23:18:11.307Z,99275.41
2023-01-27T23:20:39.520Z,99286.00
2023-01-27T23:23:06.277Z,99274.47
2023-01-27T23:25:32.902Z,99282.69
2023-01-27T23:27:59.823Z,99274.41
2023-01-27T23:30:26.772Z,99271.28
2023-01-27T23:32:57.465Z,99275.66
2023-01-27T23:35:24.065Z,99278.41
2023-01-27T23:37:50.530Z,99278.34
2023-01-27T23:40:17.203Z,99275.72
2023-01-27T23:42:43.749Z,99278.97
2023-01-27T23:45:11.364Z,99288.03
2023-01-27T23:47:37.964Z,99279.56
2023-01-27T23:50:05.307Z,99283.91
2023-01-27T23:52:34.378Z,99286.63
2023-01-27T23:55:00.836Z,99292.56
2023-01-27T23:57:27.574Z,99281.06
2023-01-27T23:59:54.035Z,99293.63
